sensor_id;sensor_type;location;lat;lon;timestamp;pressure;altitude;pressure_sealevel;temperature;humidity
72370;BME280;60343;-32.030;115.880;2023-10-13T00:00:42;102877.16;;;25.53;33.13
72370;BME280;60343;-32.030;115.880;2023-10-13T00:03:31;102870.84;;;25.59;32.63
72370;BME280;60343;-32.030;115.880;2023-10-13T00:06:08;102876.59;;;25.45;32.46
72370;BME280;60343;-32.030;115.880;2023-10-13T00:08:43;102874.44;;;25.60;32.09
72370;BME280;60343;-32.030;115.880;2023-10-13T00:11:20;102875.81;;;25.31;32.60
72370;BME280;60343;-32.030;115.880;2023-10-13T00:13:55;102873.41;;;25.48;33.03
72370;BME280;60343;-32.030;115.880;2023-10-13T00:16:32;102874.19;;;25.61;32.04
72370;BME280;60343;-32.030;115.880;2023-10-13T00:19:14;102875.50;;;25.84;32.71
72370;BME280;60343;-32.030;115.880;2023-10-13T00:21:51;102875.50;;;25.84;31.19
72370;BME280;60343;-32.030;115.880;2023-10-13T00:24:36;102868.88;;;25.67;31.46
72370;BME280;60343;-32.030;115.880;2023-10-13T00:27:20;102876.72;;;25.88;31.34
72370;BME280;60343;-32.030;115.880;2023-10-13T00:30:09;102877.84;;;26.05;31.40
72370;BME280;60343;-32.030;115.880;2023-10-13T00:33:01;102874.19;;;26.36;31.07
72370;BME280;60343;-32.030;115.880;2023-10-13T00:35:43;102878.81;;;26.60;30.55
72370;BME280;60343;-32.030;115.880;2023-10-13T00:38:19;102883.44;;;26.78;30.53
72370;BME280;60343;-32.030;115.880;2023-10-13T00:40:55;102880.47;;;26.98;30.44
72370;BME280;60343;-32.030;115.880;2023-10-13T00:43:33;102880.97;;;27.06;29.74
72370;BME280;60343;-32.030;115.880;2023-10-13T00:46:33;102883.44;;;27.14;29.41
72370;BME280;60343;-32.030;115.880;2023-10-13T00:49:04;102878.22;;;27.24;29.74
72370;BME280;60343;-32.030;115.880;2023-10-13T00:51:50;102881.69;;;27.50;29.92
72370;BME280;60343;-32.030;115.880;2023-10-13T00:54:20;102893.53;;;27.50;29.53
72370;BME280;60343;-32.030;115.880;2023-10-13T00:56:56;102879.34;;;27.35;29.65
72370;BME280;60343;-32.030;115.880;2023-10-13T00:59:35;102875.97;;;27.51;29.38
72370;BME280;60343;-32.030;115.880;2023-10-13T01:02:14;102879.59;;;27.45;29.64
72370;BME280;60343;-32.030;115.880;2023-10-13T01:05:07;102883.88;;;27.11;29.33
72370;BME280;60343;-32.030;115.880;2023-10-13T01:07:53;102884.97;;;27.40;30.09
72370;BME280;60343;-32.030;115.880;2023-10-13T01:10:29;102891.25;;;27.29;29.72
72370;BME280;60343;-32.030;115.880;2023-10-13T01:13:00;102887.47;;;27.42;29.97
72370;BME280;60343;-32.030;115.880;2023-10-13T01:15:36;102877.31;;;27.42;30.06
72370;BME280;60343;-32.030;115.880;2023-10-13T01:18:09;102878.63;;;27.40;29.84
72370;BME280;60343;-32.030;115.880;2023-10-13T01:20:45;102886.75;;;27.35;29.78
72370;BME280;60343;-32.030;115.880;2023-10-13T01:23:26;102889.22;;;27.06;29.70
72370;BME280;60343;-32.030;115.880;2023-10-13T01:26:06;102876.53;;;27.23;29.93
72370;BME280;60343;-32.030;115.880;2023-10-13T01:28:37;102882.22;;;27.10;29.83
72370;BME280;60343;-32.030;115.880;2023-10-13T01:31:14;102878.94;;;27.50;30.16
72370;BME280;60343;-32.030;115.880;2023-10-13T01:33:52;102868.84;;;27.85;29.34
72370;BME280;60343;-32.030;115.880;2023-10-13T01:36:25;102872.66;;;27.84;29.98
72370;BME280;60343;-32.030;115.880;2023-10-13T01:39:09;102868.38;;;28.00;29.49
72370;BME280;60343;-32.030;115.880;2023-10-13T01:41:44;102870.19;;;28.17;29.34
72370;BME280;60343;-32.030;115.880;2023-10-13T01:44:23;102865.78;;;28.17;29.09
72370;BME280;60343;-32.030;115.880;2023-10-13T01:46:55;102868.75;;;28.38;28.57
72370;BME280;60343;-32.030;115.880;2023-10-13T01:49:34;102862.09;;;28.63;28.13
72370;BME280;60343;-32.030;115.880;2023-10-13T01:52:09;102865.81;;;28.80;27.34
72370;BME280;60343;-32.030;115.880;2023-10-13T01:54:51;102860.19;;;28.86;27.78
72370;BME280;60343;-32.030;115.880;2023-10-13T01:57:22;102854.25;;;28.94;27.95
72370;BME280;60343;-32.030;115.880;2023-10-13T01:59:57;102856.69;;;28.91;27.95
72370;BME280;60343;-32.030;115.880;2023-10-13T02:02:36;102855.44;;;28.98;28.48
72370;BME280;60343;-32.030;115.880;2023-10-13T02:05:13;102849.56;;;29.23;27.71
72370;BME280;60343;-32.030;115.880;2023-10-13T02:07:44;102853.47;;;29.39;27.30
72370;BME280;60343;-32.030;115.880;2023-10-13T02:10:28;102849.13;;;29.43;26.42
72370;BME280;60343;-32.030;115.880;2023-10-13T02:12:59;102833.09;;;29.57;27.21
72370;BME280;60343;-32.030;115.880;2023-10-13T02:15:42;102837.44;;;29.69;27.55
72370;BME280;60343;-32.030;115.880;2023-10-13T02:18:20;102833.00;;;29.68;26.62
72370;BME280;60343;-32.030;115.880;2023-10-13T02:20:54;102830.34;;;29.90;26.47
72370;BME280;60343;-32.030;115.880;2023-10-13T02:23:32;102823.41;;;29.88;25.90
72370;BME280;60343;-32.030;115.880;2023-10-13T02:26:12;102821.31;;;29.95;25.69
72370;BME280;60343;-32.030;115.880;2023-10-13T02:28:59;102818.69;;;30.05;26.12
72370;BME280;60343;-32.030;115.880;2023-10-13T02:31:37;102812.00;;;30.01;25.61
72370;BME280;60343;-32.030;115.880;2023-10-13T02:34:07;102812.69;;;30.08;26.72
72370;BME280;60343;-32.030;115.880;2023-10-13T02:36:43;102805.56;;;30.12;25.59
72370;BME280;60343;-32.030;115.880;2023-10-13T02:39:16;102798.56;;;30.26;25.79
72370;BME280;60343;-32.030;115.880;2023-10-13T02:41:59;102783.31;;;30.45;25.10
72370;BME280;60343;-32.030;115.880;2023-10-13T02:44:28;102788.34;;;30.48;25.02
72370;BME280;60343;-32.030;115.880;2023-10-13T02:47:04;102773.63;;;30.21;24.47
72370;BME280;60343;-32.030;115.880;2023-10-13T02:49:41;102778.13;;;30.27;24.74
72370;BME280;60343;-32.030;115.880;2023-10-13T02:52:17;102773.09;;;30.24;25.13
72370;BME280;60343;-32.030;115.880;2023-10-13T02:54:47;102765.09;;;30.22;24.46
72370;BME280;60343;-32.030;115.880;2023-10-13T02:57:31;102763.72;;;30.25;24.29
72370;BME280;60343;-32.030;115.880;2023-10-13T03:00:08;102756.16;;;30.37;23.87
72370;BME280;60343;-32.030;115.880;2023-10-13T03:02:40;102750.31;;;30.55;24.77
72370;BME280;60343;-32.030;115.880;2023-10-13T03:05:25;102746.44;;;30.78;23.50
72370;BME280;60343;-32.030;115.880;2023-10-13T03:07:58;102746.28;;;30.95;22.92
72370;BME280;60343;-32.030;115.880;2023-10-13T03:10:34;102733.50;;;30.89;24.37
72370;BME280;60343;-32.030;115.880;2023-10-13T03:13:13;102732.41;;;30.90;22.19
72370;BME280;60343;-32.030;115.880;2023-10-13T03:15:48;102729.53;;;30.80;24.85
72370;BME280;60343;-32.030;115.880;2023-10-13T03:18:18;102724.63;;;30.60;24.88
72370;BME280;60343;-32.030;115.880;2023-10-13T03:20:53;102727.22;;;30.93;23.29
72370;BME280;60343;-32.030;115.880;2023-10-13T03:23:27;102724.25;;;31.32;23.38
72370;BME280;60343;-32.030;115.880;2023-10-13T03:26:13;102716.53;;;31.39;22.74
72370;BME280;60343;-32.030;115.880;2023-10-13T03:28:54;102712.72;;;31.08;23.84
72370;BME280;60343;-32.030;115.880;2023-10-13T03:31:32;102707.47;;;31.12;22.94
72370;BME280;60343;-32.030;115.880;2023-10-13T03:34:07;102700.50;;;31.41;22.93
72370;BME280;60343;-32.030;115.880;2023-10-13T03:36:46;102704.88;;;31.69;24.38
72370;BME280;60343;-32.030;115.880;2023-10-13T03:39:39;102698.81;;;31.77;21.96
72370;BME280;60343;-32.030;115.880;2023-10-13T03:42:14;102694.88;;;31.63;22.76
72370;BME280;60343;-32.030;115.880;2023-10-13T03:45:00;102686.75;;;31.98;21.32
72370;BME280;60343;-32.030;115.880;2023-10-13T03:47:38;102686.31;;;32.26;21.13
72370;BME280;60343;-32.030;115.880;2023-10-13T03:50:14;102678.09;;;32.62;20.62
72370;BME280;60343;-32.030;115.880;2023-10-13T03:52:58;102678.06;;;32.57;20.79
72370;BME280;60343;-32.030;115.880;2023-10-13T03:55:33;102677.81;;;32.63;20.94
72370;BME280;60343;-32.030;115.880;2023-10-13T03:58:16;102663.16;;;32.83;20.81
72370;BME280;60343;-32.030;115.880;2023-10-13T04:01:00;102652.00;;;32.58;22.02
72370;BME280;60343;-32.030;115.880;2023-10-13T04:03:37;102650.38;;;32.67;22.52
72370;BME280;60343;-32.030;115.880;2023-10-13T04:06:25;102640.41;;;32.86;20.85
72370;BME280;60343;-32.030;115.880;2023-10-13T04:09:20;102646.50;;;32.93;20.08
72370;BME280;60343;-32.030;115.880;2023-10-13T04:12:12;102645.09;;;33.06;19.85
72370;BME280;60343;-32.030;115.880;2023-10-13T04:15:16;102647.03;;;33.10;19.66
72370;BME280;60343;-32.030;115.880;2023-10-13T04:17:57;102633.16;;;33.15;20.25
72370;BME280;60343;-32.030;115.880;2023-10-13T04:20:42;102625.97;;;33.25;19.05
72370;BME280;60343;-32.030;115.880;2023-10-13T04:23:17;102633.16;;;33.26;19.23
72370;BME280;60343;-32.030;115.880;2023-10-13T04:25:47;102625.13;;;33.29;18.90
72370;BME280;60343;-32.030;115.880;2023-10-13T04:28:30;102617.56;;;33.50;18.89
72370;BME280;60343;-32.030;115.880;2023-10-13T04:31:23;102617.78;;;33.63;18.65
72370;BME280;60343;-32.030;115.880;2023-10-13T04:34:20;102605.59;;;33.70;18.95
72370;BME280;60343;-32.030;115.880;2023-10-13T04:36:56;102607.44;;;33.89;18.30
72370;BME280;60343;-32.030;115.880;2023-10-13T04:39:50;102603.75;;;33.99;18.42
72370;BME280;60343;-32.030;115.880;2023-10-13T04:42:26;102591.16;;;34.12;17.84
72370;BME280;60343;-32.030;115.880;2023-10-13T04:45:12;102594.63;;;33.93;17.75
72370;BME280;60343;-32.030;115.880;2023-10-13T04:48:06;102590.38;;;34.06;17.98
72370;BME280;60343;-32.030;115.880;2023-10-13T04:51:12;102590.06;;;34.13;17.51
72370;BME280;60343;-32.030;115.880;2023-10-13T04:54:12;102587.00;;;34.53;17.48
72370;BME280;60343;-32.030;115.880;2023-10-13T04:56:53;102560.44;;;34.37;17.48
72370;BME280;60343;-32.030;115.880;2023-10-13T04:59:49;102565.72;;;34.67;17.46
72370;BME280;60343;-32.030;115.880;2023-10-13T05:02:32;102560.47;;;34.32;16.89
72370;BME280;60343;-32.030;115.880;2023-10-13T05:05:16;102561.38;;;34.56;17.34
72370;BME280;60343;-32.030;115.880;2023-10-13T05:08:19;102555.88;;;34.85;16.60
72370;BME280;60343;-32.030;115.880;2023-10-13T05:11:05;102560.19;;;34.96;16.39
72370;BME280;60343;-32.030;115.880;2023-10-13T05:13:48;102561.22;;;34.76;16.14
72370;BME280;60343;-32.030;115.880;2023-10-13T05:16:31;102553.53;;;34.63;16.57
72370;BME280;60343;-32.030;115.880;2023-10-13T05:19:14;102554.53;;;34.77;16.63
72370;BME280;60343;-32.030;115.880;2023-10-13T05:21:57;102543.25;;;34.64;17.43
72370;BME280;60343;-32.030;115.880;2023-10-13T05:24:46;102544.00;;;34.74;16.86
72370;BME280;60343;-32.030;115.880;2023-10-13T05:27:29;102537.06;;;34.67;16.35
72370;BME280;60343;-32.030;115.880;2023-10-13T05:30:12;102537.16;;;34.91;17.64
72370;BME280;60343;-32.030;115.880;2023-10-13T05:32:54;102525.81;;;35.11;16.06
72370;BME280;60343;-32.030;115.880;2023-10-13T05:35:37;102523.47;;;34.94;15.59
72370;BME280;60343;-32.030;115.880;2023-10-13T05:38:20;102527.53;;;34.78;16.33
72370;BME280;60343;-32.030;115.880;2023-10-13T05:41:09;102523.94;;;34.77;16.51
72370;BME280;60343;-32.030;115.880;2023-10-13T05:43:52;102518.81;;;34.90;16.37
72370;BME280;60343;-32.030;115.880;2023-10-13T05:46:35;102515.41;;;35.16;16.68
72370;BME280;60343;-32.030;115.880;2023-10-13T05:49:21;102503.81;;;35.33;16.63
72370;BME280;60343;-32.030;115.880;2023-10-13T05:52:04;102507.66;;;35.37;15.68
72370;BME280;60343;-32.030;115.880;2023-10-13T05:54:48;102498.72;;;35.40;16.49
72370;BME280;60343;-32.030;115.880;2023-10-13T05:57:37;102498.44;;;35.60;15.91
72370;BME280;60343;-32.030;115.880;2023-10-13T06:00:20;102493.41;;;36.00;15.35
72370;BME280;60343;-32.030;115.880;2023-10-13T06:03:03;102485.41;;;36.12;15.03
72370;BME280;60343;-32.030;115.880;2023-10-13T06:05:47;102489.22;;;35.84;15.55
72370;BME280;60343;-32.030;115.880;2023-10-13T06:08:30;102484.69;;;35.88;15.29
72370;BME280;60343;-32.030;115.880;2023-10-13T06:11:13;102481.22;;;35.77;15.62
72370;BME280;60343;-32.030;115.880;2023-10-13T06:14:02;102465.00;;;35.98;15.44
72370;BME280;60343;-32.030;115.880;2023-10-13T06:16:45;102466.91;;;35.84;16.33
72370;BME280;60343;-32.030;115.880;2023-10-13T06:19:28;102464.78;;;35.94;15.40
72370;BME280;60343;-32.030;115.880;2023-10-13T06:22:11;102463.34;;;35.97;15.18
72370;BME280;60343;-32.030;115.880;2023-10-13T06:24:54;102461.28;;;36.02;15.36
72370;BME280;60343;-32.030;115.880;2023-10-13T06:27:36;102460.72;;;36.05;16.12
72370;BME280;60343;-32.030;115.880;2023-10-13T06:30:25;102454.97;;;35.97;15.35
72370;BME280;60343;-32.030;115.880;2023-10-13T06:33:01;102444.19;;;36.09;15.39
72370;BME280;60343;-32.030;115.880;2023-10-13T06:35:36;102451.06;;;36.17;16.07
72370;BME280;60343;-32.030;115.880;2023-10-13T06:38:12;102455.66;;;36.26;15.14
72370;BME280;60343;-32.030;115.880;2023-10-13T06:40:49;102443.50;;;36.17;15.49
72370;BME280;60343;-32.030;115.880;2023-10-13T06:43:25;102441.19;;;36.05;15.17
72370;BME280;60343;-32.030;115.880;2023-10-13T06:46:06;102437.78;;;36.41;15.11
72370;BME280;60343;-32.030;115.880;2023-10-13T06:48:42;102434.00;;;36.18;15.44
72370;BME280;60343;-32.030;115.880;2023-10-13T06:51:21;102439.84;;;36.35;15.99
72370;BME280;60343;-32.030;115.880;2023-10-13T06:53:58;102429.50;;;36.82;15.03
72370;BME280;60343;-32.030;115.880;2023-10-13T06:56:38;102417.69;;;36.71;14.82
72370;BME280;60343;-32.030;115.880;2023-10-13T06:59:14;102419.75;;;36.66;14.56
72370;BME280;60343;-32.030;115.880;2023-10-13T07:02:00;102408.91;;;36.64;15.34
72370;BME280;60343;-32.030;115.880;2023-10-13T07:04:37;102407.22;;;36.49;15.00
72370;BME280;60343;-32.030;115.880;2023-10-13T07:07:14;102399.97;;;36.48;14.94
72370;BME280;60343;-32.030;115.880;2023-10-13T07:09:50;102406.88;;;36.37;15.76
72370;BME280;60343;-32.030;115.880;2023-10-13T07:12:29;102398.38;;;36.61;14.42
72370;BME280;60343;-32.030;115.880;2023-10-13T07:15:06;102389.31;;;36.04;15.16
72370;BME280;60343;-32.030;115.880;2023-10-13T07:17:53;102398.44;;;34.98;15.76
72370;BME280;60343;-32.030;115.880;2023-10-13T07:20:34;102404.38;;;34.10;16.75
72370;BME280;60343;-32.030;115.880;2023-10-13T07:23:12;102404.91;;;33.78;16.82
72370;BME280;60343;-32.030;115.880;2023-10-13T07:25:55;102394.72;;;33.63;17.58
72370;BME280;60343;-32.030;115.880;2023-10-13T07:28:31;102399.75;;;33.56;17.28
72370;BME280;60343;-32.030;115.880;2023-10-13T07:31:14;102400.84;;;33.60;17.53
72370;BME280;60343;-32.030;115.880;2023-10-13T07:33:55;102393.84;;;33.29;18.10
72370;BME280;60343;-32.030;115.880;2023-10-13T07:36:32;102390.38;;;33.47;17.25
72370;BME280;60343;-32.030;115.880;2023-10-13T07:39:07;102389.97;;;33.25;17.39
72370;BME280;60343;-32.030;115.880;2023-10-13T07:41:54;102383.34;;;33.05;17.95
72370;BME280;60343;-32.030;115.880;2023-10-13T07:44:30;102381.16;;;33.02;18.43
72370;BME280;60343;-32.030;115.880;2023-10-13T07:47:13;102377.91;;;32.85;17.66
72370;BME280;60343;-32.030;115.880;2023-10-13T07:49:58;102388.75;;;32.82;18.08
72370;BME280;60343;-32.030;115.880;2023-10-13T07:52:34;102380.66;;;32.85;18.17
72370;BME280;60343;-32.030;115.880;2023-10-13T07:55:26;102382.28;;;32.96;17.78
72370;BME280;60343;-32.030;115.880;2023-10-13T07:58:01;102380.72;;;32.75;18.20
72370;BME280;60343;-32.030;115.880;2023-10-13T08:00:36;102379.09;;;32.69;18.04
72370;BME280;60343;-32.030;115.880;2023-10-13T08:03:22;102380.19;;;32.58;18.27
72370;BME280;60343;-32.030;115.880;2023-10-13T08:06:17;102381.06;;;32.48;17.64
72370;BME280;60343;-32.030;115.880;2023-10-13T08:09:02;102381.34;;;32.47;17.86
72370;BME280;60343;-32.030;115.880;2023-10-13T08:11:57;102392.19;;;32.28;18.16
72370;BME280;60343;-32.030;115.880;2023-10-13T08:14:35;102382.75;;;32.39;18.19
72370;BME280;60343;-32.030;115.880;2023-10-13T08:17:11;102382.19;;;32.32;18.31
72370;BME280;60343;-32.030;115.880;2023-10-13T08:19:53;102378.63;;;32.21;18.90
72370;BME280;60343;-32.030;115.880;2023-10-13T08:22:44;102383.59;;;32.24;18.16
72370;BME280;60343;-32.030;115.880;2023-10-13T08:25:41;102379.16;;;31.98;19.01
72370;BME280;60343;-32.030;115.880;2023-10-13T08:28:24;102370.31;;;32.11;18.32
72370;BME280;60343;-32.030;115.880;2023-10-13T08:31:06;102368.38;;;32.17;18.12
72370;BME280;60343;-32.030;115.880;2023-10-13T08:33:50;102372.78;;;31.87;18.18
72370;BME280;60343;-32.030;115.880;2023-10-13T08:36:34;102380.28;;;31.92;18.51
72370;BME280;60343;-32.030;115.880;2023-10-13T08:39:15;102380.28;;;31.92;18.31
72370;BME280;60343;-32.030;115.880;2023-10-13T08:42:16;102382.78;;;31.99;18.49
72370;BME280;60343;-32.030;115.880;2023-10-13T08:44:46;102388.31;;;31.93;18.18
72370;BME280;60343;-32.030;115.880;2023-10-13T08:47:22;102386.09;;;31.95;18.54
72370;BME280;60343;-32.030;115.880;2023-10-13T08:50:04;102381.94;;;31.68;18.52
72370;BME280;60343;-32.030;115.880;2023-10-13T08:53:06;102382.19;;;31.61;18.38
72370;BME280;60343;-32.030;115.880;2023-10-13T08:56:01;102384.09;;;31.50;18.72
72370;BME280;60343;-32.030;115.880;2023-10-13T08:58:43;102383.03;;;31.57;18.83
72370;BME280;60343;-32.030;115.880;2023-10-13T09:01:39;102379.16;;;31.58;18.82
72370;BME280;60343;-32.030;115.880;2023-10-13T09:04:27;102384.09;;;31.50;19.15
72370;BME280;60343;-32.030;115.880;2023-10-13T09:07:02;102386.00;;;31.50;19.07
72370;BME280;60343;-32.030;115.880;2023-10-13T09:09:49;102385.72;;;31.41;19.85
72370;BME280;60343;-32.030;115.880;2023-10-13T09:12:54;102384.06;;;31.40;20.17
72370;BME280;60343;-32.030;115.880;2023-10-13T09:15:39;102384.63;;;31.37;20.08
72370;BME280;60343;-32.030;115.880;2023-10-13T09:18:28;102383.50;;;31.33;20.32
72370;BME280;60343;-32.030;115.880;2023-10-13T09:21:11;102386.25;;;31.18;20.28
72370;BME280;60343;-32.030;115.880;2023-10-13T09:24:08;102385.00;;;30.99;20.47
72370;BME280;60343;-32.030;115.880;2023-10-13T09:27:01;102389.72;;;30.93;20.81
72370;BME280;60343;-32.030;115.880;2023-10-13T09:29:55;102391.00;;;30.76;20.87
72370;BME280;60343;-32.030;115.880;2023-10-13T09:32:25;102400.38;;;30.75;21.16
72370;BME280;60343;-32.030;115.880;2023-10-13T09:35:12;102398.13;;;30.61;21.20
72370;BME280;60343;-32.030;115.880;2023-10-13T09:37:46;102395.75;;;30.43;21.98
72370;BME280;60343;-32.030;115.880;2023-10-13T09:40:24;102402.41;;;30.42;21.74
72370;BME280;60343;-32.030;115.880;2023-10-13T09:42:54;102400.16;;;30.39;21.51
72370;BME280;60343;-32.030;115.880;2023-10-13T09:45:39;102398.38;;;30.23;22.03
72370;BME280;60343;-32.030;115.880;2023-10-13T09:48:33;102393.81;;;30.02;22.36
72370;BME280;60343;-32.030;115.880;2023-10-13T09:51:04;102405.38;;;29.99;22.46
72370;BME280;60343;-32.030;115.880;2023-10-13T09:53:42;102408.50;;;29.80;22.77
72370;BME280;60343;-32.030;115.880;2023-10-13T09:56:26;102403.19;;;29.74;22.89
72370;BME280;60343;-32.030;115.880;2023-10-13T09:59:02;102405.53;;;29.60;22.46
72370;BME280;60343;-32.030;115.880;2023-10-13T10:01:48;102399.56;;;29.41;22.44
72370;BME280;60343;-32.030;115.880;2023-10-13T10:04:19;102409.31;;;29.27;23.09
72370;BME280;60343;-32.030;115.880;2023-10-13T10:06:58;102409.66;;;29.31;22.91
72370;BME280;60343;-32.030;115.880;2023-10-13T10:09:29;102406.38;;;29.12;22.76
72370;BME280;60343;-32.030;115.880;2023-10-13T10:12:18;102412.00;;;29.00;23.30
72370;BME280;60343;-32.030;115.880;2023-10-13T10:15:20;102421.28;;;28.94;23.20
72370;BME280;60343;-32.030;115.880;2023-10-13T10:18:18;102417.31;;;28.85;22.91
72370;BME280;60343;-32.030;115.880;2023-10-13T10:21:05;102419.50;;;28.67;23.46
72370;BME280;60343;-32.030;115.880;2023-10-13T10:23:53;102429.56;;;28.56;23.37
72370;BME280;60343;-32.030;115.880;2023-10-13T10:26:35;102430.84;;;28.32;23.91
72370;BME280;60343;-32.030;115.880;2023-10-13T10:29:12;102435.75;;;28.30;23.84
72370;BME280;60343;-32.030;115.880;2023-10-13T10:31:48;102426.72;;;28.17;23.79
72370;BME280;60343;-32.030;115.880;2023-10-13T10:34:31;102428.03;;;27.98;24.54
72370;BME280;60343;-32.030;115.880;2023-10-13T10:37:07;102433.78;;;27.80;24.79
72370;BME280;60343;-32.030;115.880;2023-10-13T10:39:44;102443.31;;;27.61;25.16
72370;BME280;60343;-32.030;115.880;2023-10-13T10:42:25;102438.13;;;27.36;25.39
72370;BME280;60343;-32.030;115.880;2023-10-13T10:45:00;102446.09;;;27.09;26.00
72370;BME280;60343;-32.030;115.880;2023-10-13T10:47:37;102454.81;;;26.71;26.65
72370;BME280;60343;-32.030;115.880;2023-10-13T10:50:26;102455.31;;;26.45;27.76
72370;BME280;60343;-32.030;115.880;2023-10-13T10:53:05;102455.09;;;26.17;27.91
72370;BME280;60343;-32.030;115.880;2023-10-13T10:55:41;102462.38;;;25.99;28.62
72370;BME280;60343;-32.030;115.880;2023-10-13T10:58:16;102466.53;;;26.02;28.94
72370;BME280;60343;-32.030;115.880;2023-10-13T11:01:07;102474.31;;;26.05;32.88
72370;BME280;60343;-32.030;115.880;2023-10-13T11:03:58;102471.44;;;26.12;34.82
72370;BME280;60343;-32.030;115.880;2023-10-13T11:06:46;102485.69;;;25.79;35.62
72370;BME280;60343;-32.030;115.880;2023-10-13T11:09:26;102475.97;;;25.65;36.74
72370;BME280;60343;-32.030;115.880;2023-10-13T11:12:14;102484.72;;;25.37;37.31
72370;BME280;60343;-32.030;115.880;2023-10-13T11:15:02;102479.00;;;25.20;38.30
72370;BME280;60343;-32.030;115.880;2023-10-13T11:17:42;102486.78;;;25.05;38.90
72370;BME280;60343;-32.030;115.880;2023-10-13T11:20:26;102494.56;;;24.83;39.56
72370;BME280;60343;-32.030;115.880;2023-10-13T11:23:18;102498.72;;;24.67;40.06
72370;BME280;60343;-32.030;115.880;2023-10-13T11:25:58;102503.03;;;24.57;40.48
72370;BME280;60343;-32.030;115.880;2023-10-13T11:28:35;102506.31;;;24.41;40.99
72370;BME280;60343;-32.030;115.880;2023-10-13T11:31:16;102505.31;;;24.35;41.41
72370;BME280;60343;-32.030;115.880;2023-10-13T11:33:52;102508.16;;;24.15;41.99
72370;BME280;60343;-32.030;115.880;2023-10-13T11:36:30;102516.06;;;23.99;42.78
72370;BME280;60343;-32.030;115.880;2023-10-13T11:39:13;102521.84;;;23.84;43.23
72370;BME280;60343;-32.030;115.880;2023-10-13T11:42:00;102528.38;;;23.76;43.75
72370;BME280;60343;-32.030;115.880;2023-10-13T11:44:37;102529.88;;;23.72;43.86
72370;BME280;60343;-32.030;115.880;2023-10-13T11:47:13;102532.44;;;23.61;43.79
72370;BME280;60343;-32.030;115.880;2023-10-13T11:49:59;102538.13;;;23.59;44.21
72370;BME280;60343;-32.030;115.880;2023-10-13T11:52:34;102533.56;;;23.91;43.55
72370;BME280;60343;-32.030;115.880;2023-10-13T11:55:15;102538.94;;;23.73;43.92
72370;BME280;60343;-32.030;115.880;2023-10-13T11:57:52;102542.91;;;23.77;43.54
72370;BME280;60343;-32.030;115.880;2023-10-13T12:00:27;102549.59;;;23.87;43.55
72370;BME280;60343;-32.030;115.880;2023-10-13T12:03:18;102552.13;;;23.82;43.37
72370;BME280;60343;-32.030;115.880;2023-10-13T12:06:01;102553.00;;;23.76;43.61
72370;BME280;60343;-32.030;115.880;2023-10-13T12:08:50;102557.22;;;23.79;43.30
72370;BME280;60343;-32.030;115.880;2023-10-13T12:11:45;102553.69;;;23.65;43.48
72370;BME280;60343;-32.030;115.880;2023-10-13T12:14:22;102554.72;;;23.64;43.19
72370;BME280;60343;-32.030;115.880;2023-10-13T12:17:05;102565.72;;;23.58;43.50
72370;BME280;60343;-32.030;115.880;2023-10-13T12:19:45;102571.78;;;23.66;43.25
72370;BME280;60343;-32.030;115.880;2023-10-13T12:22:20;102575.22;;;23.48;43.29
72370;BME280;60343;-32.030;115.880;2023-10-13T12:25:03;102582.13;;;23.38;43.78
72370;BME280;60343;-32.030;115.880;2023-10-13T12:27:53;102577.72;;;23.30;43.67
72370;BME280;60343;-32.030;115.880;2023-10-13T12:30:40;102574.59;;;23.27;43.94
72370;BME280;60343;-32.030;115.880;2023-10-13T12:33:25;102581.75;;;23.15;44.17
72370;BME280;60343;-32.030;115.880;2023-10-13T12:36:05;102582.38;;;23.17;44.12
72370;BME280;60343;-32.030;115.880;2023-10-13T12:38:58;102580.09;;;22.87;44.81
72370;BME280;60343;-32.030;115.880;2023-10-13T12:41:41;102576.53;;;22.80;45.07
72370;BME280;60343;-32.030;115.880;2023-10-13T12:44:30;102575.22;;;22.69;45.34
72370;BME280;60343;-32.030;115.880;2023-10-13T12:47:13;102580.69;;;22.63;45.23
72370;BME280;60343;-32.030;115.880;2023-10-13T12:49:56;102576.31;;;22.75;44.94
72370;BME280;60343;-32.030;115.880;2023-10-13T12:52:36;102571.84;;;22.54;45.10
72370;BME280;60343;-32.030;115.880;2023-10-13T12:55:13;102574.16;;;22.64;44.86
72370;BME280;60343;-32.030;115.880;2023-10-13T12:57:52;102583.41;;;22.50;45.13
72370;BME280;60343;-32.030;115.880;2023-10-13T13:00:33;102580.63;;;22.30;45.50
72370;BME280;60343;-32.030;115.880;2023-10-13T13:03:16;102584.16;;;22.11;45.69
72370;BME280;60343;-32.030;115.880;2023-10-13T13:05:56;102578.28;;;22.07;45.88
72370;BME280;60343;-32.030;115.880;2023-10-13T13:08:35;102579.47;;;21.98;46.17
72370;BME280;60343;-32.030;115.880;2023-10-13T13:11:12;102576.16;;;22.03;45.75
72370;BME280;60343;-32.030;115.880;2023-10-13T13:13:47;102574.03;;;21.98;46.21
72370;BME280;60343;-32.030;115.880;2023-10-13T13:16:28;102574.25;;;21.97;45.97
72370;BME280;60343;-32.030;115.880;2023-10-13T13:19:03;102580.44;;;21.84;46.13
72370;BME280;60343;-32.030;115.880;2023-10-13T13:21:39;102571.25;;;21.85;45.95
72370;BME280;60343;-32.030;115.880;2023-10-13T13:24:16;102575.38;;;21.74;46.56
72370;BME280;60343;-32.030;115.880;2023-10-13T13:26:51;102573.69;;;21.67;46.59
72370;BME280;60343;-32.030;115.880;2023-10-13T13:29:31;102571.94;;;21.59;46.63
72370;BME280;60343;-32.030;115.880;2023-10-13T13:32:12;102572.50;;;21.42;46.86